Stafford Township, New Jersey
Current Conditions -  °F | °C
As of 10:35 PM on Saturday 24 Jan 2015 (Local Time) from KMJX Reporting Station
Clear Clear  
Wind Chill: 34°   Ceiling: Unl
Heat Index: 34°   Visibility: 8mi
Dew Point: 28°   Wind: 0mph
Humidity: 81%   Direction: NA
Pressure: 29.51"   Gusts: NA
Location:  39.7102°N, 74.2577°W
Report Text: KMJX 250335Z AUTO 00000KT 8SM CLR 01/M02 A2951 RMK AO1
Loading
Personal Weather Stations






























Interactive Weather Map New forecast layout! Learn more

10-Day Weather Forecast

Advertisements
Track Severe Weather on mobile